Pagrindinis puslapis
METAR-TAF:

METAR-TAF

Oro uostai :

Al-`Ula, Saudo Arabija

platuma: 26-29-00N, ilguma: 038-07-01E, Aukštis: 624 m

Dabartinis oras

Ataskaita buvo paskelbta 51 minutes, ne 11:00 UTC
Vėjas 4 kt iš Pietryčių
Temperatūra 22°C
Drėgmė 31%
Slėgis 1017 hPa
Matomumas 10 km arba daugiau
Mažai debesys ne aukštis 4000 ft

METAR: OEAO 271100Z 14004KT 9999 FEW040 22/04 Q1017 NOSIG

Laikas: 14:51 (11:51 UTC)

Prognozė

Ataskaita buvo paskelbta 51 minutes, ne 11:00 UTC
Prognozė galioja nuo 27 metu 12 UTC su 28 metu 18 UTC
Vėjas 8 kt iš Rytų/Pietryčių
Matomumas: 7000 m
Tapsmas
nuo 27 metu 18 UTC su 27 metu 20 UTC
Vėjas 3 kt nuo kintamojo kryptimis
Mažai debesys ne aukštis 4000 ft
Tapsmas
nuo 28 metu 06 UTC su 28 metu 08 UTC
Vėjas 10 kt iš Pietų/Pietryčių

TAF: OEAO 271100Z 2712/2818 12008KT 7000 NSC BECMG 2718/2720 VRB03KT FEW040 BECMG 2806/2808 16010KT

Orai ataskaitas ir orų prognozės (METAR, TAF).

turimą stotys yra geltonos ir raudonos taškus žemėlapyje.

Perkelti pele per norėdami pamatyti stoties vardą.

Tada spustelėkite, norėdami matyti oro stebėjimo ir prognozės.

Norėdami pakeisti žemėlapį: spustelėkite ant žalios mygtukų su juodo kryžiaus žemyn,; žalią mygtuką su brūkšneliu, jei norite nutolinti; arba žalių rodyklių gretimoms žemėlapius.


METAR-TAF: